sensor_id;sensor_type;location;lat;lon;timestamp;temperature;humidity
70300;HTU21D;57704;51.112;5.878;2023-02-15T00:01:55;5.72;65.92
70300;HTU21D;57704;51.112;5.878;2023-02-15T00:04:24;5.72;65.91
70300;HTU21D;57704;51.112;5.878;2023-02-15T00:06:50;5.68;65.90
70300;HTU21D;57704;51.112;5.878;2023-02-15T00:09:16;5.67;65.97
70300;HTU21D;57704;51.112;5.878;2023-02-15T00:11:42;5.65;65.97
70300;HTU21D;57704;51.112;5.878;2023-02-15T00:14:14;5.62;65.92
70300;HTU21D;57704;51.112;5.878;2023-02-15T00:16:42;5.60;66.01
70300;HTU21D;57704;51.112;5.878;2023-02-15T00:19:09;5.60;66.04
70300;HTU21D;57704;51.112;5.878;2023-02-15T00:21:36;5.53;66.11
70300;HTU21D;57704;51.112;5.878;2023-02-15T00:24:06;5.48;66.27
70300;HTU21D;57704;51.112;5.878;2023-02-15T00:26:33;5.45;66.42
70300;HTU21D;57704;51.112;5.878;2023-02-15T00:29:00;5.43;66.48
70300;HTU21D;57704;51.112;5.878;2023-02-15T00:31:28;5.45;66.51
70300;HTU21D;57704;51.112;5.878;2023-02-15T00:34:04;5.41;66.45
70300;HTU21D;57704;51.112;5.878;2023-02-15T00:36:30;5.41;66.43
70300;HTU21D;57704;51.112;5.878;2023-02-15T00:38:56;5.38;66.38
70300;HTU21D;57704;51.112;5.878;2023-02-15T00:41:22;5.38;66.36
70300;HTU21D;57704;51.112;5.878;2023-02-15T00:43:48;5.36;66.33
70300;HTU21D;57704;51.112;5.878;2023-02-15T00:46:14;5.30;66.36
70300;HTU21D;57704;51.112;5.878;2023-02-15T00:48:39;5.26;66.39
70300;HTU21D;57704;51.112;5.878;2023-02-15T00:51:06;5.22;66.44
70300;HTU21D;57704;51.112;5.878;2023-02-15T00:53:32;5.18;66.56
70300;HTU21D;57704;51.112;5.878;2023-02-15T00:55:58;5.15;66.59
70300;HTU21D;57704;51.112;5.878;2023-02-15T00:58:25;5.15;66.62
70300;HTU21D;57704;51.112;5.878;2023-02-15T01:00:51;5.12;66.53
70300;HTU21D;57704;51.112;5.878;2023-02-15T01:03:19;5.11;66.57
70300;HTU21D;57704;51.112;5.878;2023-02-15T01:05:48;5.10;66.65
70300;HTU21D;57704;51.112;5.878;2023-02-15T01:08:14;5.08;66.72
70300;HTU21D;57704;51.112;5.878;2023-02-15T01:10:40;5.01;66.95
70300;HTU21D;57704;51.112;5.878;2023-02-15T01:13:07;4.97;67.26
70300;HTU21D;57704;51.112;5.878;2023-02-15T01:15:35;4.94;67.49
70300;HTU21D;57704;51.112;5.878;2023-02-15T01:18:01;4.93;67.65
70300;HTU21D;57704;51.112;5.878;2023-02-15T01:20:28;4.92;67.82
70300;HTU21D;57704;51.112;5.878;2023-02-15T01:22:56;4.89;67.97
70300;HTU21D;57704;51.112;5.878;2023-02-15T01:25:23;4.91;68.06
70300;HTU21D;57704;51.112;5.878;2023-02-15T01:27:49;4.91;67.95
70300;HTU21D;57704;51.112;5.878;2023-02-15T01:30:16;4.93;67.80
70300;HTU21D;57704;51.112;5.878;2023-02-15T01:32:42;4.94;67.66
70300;HTU21D;57704;51.112;5.878;2023-02-15T01:35:10;4.90;67.91
70300;HTU21D;57704;51.112;5.878;2023-02-15T01:37:36;4.80;68.26
70300;HTU21D;57704;51.112;5.878;2023-02-15T01:40:07;4.76;68.65
70300;HTU21D;57704;51.112;5.878;2023-02-15T01:42:34;4.73;68.73
70300;HTU21D;57704;51.112;5.878;2023-02-15T01:45:16;4.72;68.90
70300;HTU21D;57704;51.112;5.878;2023-02-15T01:50:54;4.69;69.05
70300;HTU21D;57704;51.112;5.878;2023-02-15T01:53:30;4.65;69.09
70300;HTU21D;57704;51.112;5.878;2023-02-15T01:56:20;4.61;69.17
70300;HTU21D;57704;51.112;5.878;2023-02-15T01:58:51;4.57;69.27
70300;HTU21D;57704;51.112;5.878;2023-02-15T02:01:19;4.50;69.43
70300;HTU21D;57704;51.112;5.878;2023-02-15T02:04:07;4.48;69.51
70300;HTU21D;57704;51.112;5.878;2023-02-15T02:06:36;4.48;69.61
70300;HTU21D;57704;51.112;5.878;2023-02-15T02:09:05;4.45;69.71
70300;HTU21D;57704;51.112;5.878;2023-02-15T02:11:33;4.44;69.74
70300;HTU21D;57704;51.112;5.878;2023-02-15T02:13:59;4.44;69.75
70300;HTU21D;57704;51.112;5.878;2023-02-15T02:34:05;4.39;69.14
70300;HTU21D;57704;51.112;5.878;2023-02-15T02:47:20;4.16;70.12
70300;HTU21D;57704;51.112;5.878;2023-02-15T02:49:52;4.17;70.28
70300;HTU21D;57704;51.112;5.878;2023-02-15T02:52:44;4.14;70.44
70300;HTU21D;57704;51.112;5.878;2023-02-15T02:55:24;4.08;70.57
70300;HTU21D;57704;51.112;5.878;2023-02-15T02:58:34;4.02;70.72
70300;HTU21D;57704;51.112;5.878;2023-02-15T03:01:26;4.00;70.92
70300;HTU21D;57704;51.112;5.878;2023-02-15T03:04:02;4.02;70.96
70300;HTU21D;57704;51.112;5.878;2023-02-15T03:06:39;4.05;70.75
70300;HTU21D;57704;51.112;5.878;2023-02-15T03:09:39;4.06;70.49
70300;HTU21D;57704;51.112;5.878;2023-02-15T03:12:19;4.06;70.43
70300;HTU21D;57704;51.112;5.878;2023-02-15T03:14:56;4.06;70.34
70300;HTU21D;57704;51.112;5.878;2023-02-15T03:17:27;4.07;70.16
70300;HTU21D;57704;51.112;5.878;2023-02-15T03:19:59;4.07;69.98
70300;HTU21D;57704;51.112;5.878;2023-02-15T03:22:54;4.06;69.75
70300;HTU21D;57704;51.112;5.878;2023-02-15T03:25:33;4.03;69.74
70300;HTU21D;57704;51.112;5.878;2023-02-15T03:28:08;4.02;69.70
70300;HTU21D;57704;51.112;5.878;2023-02-15T03:30:39;4.02;69.61
70300;HTU21D;57704;51.112;5.878;2023-02-15T03:33:07;4.02;69.55
70300;HTU21D;57704;51.112;5.878;2023-02-15T03:36:05;4.01;69.42
70300;HTU21D;57704;51.112;5.878;2023-02-15T03:44:31;3.90;69.65
70300;HTU21D;57704;51.112;5.878;2023-02-15T03:47:08;3.86;69.80
70300;HTU21D;57704;51.112;5.878;2023-02-15T03:49:39;3.79;70.00
70300;HTU21D;57704;51.112;5.878;2023-02-15T03:52:09;3.72;70.38
70300;HTU21D;57704;51.112;5.878;2023-02-15T03:54:37;3.70;70.57
70300;HTU21D;57704;51.112;5.878;2023-02-15T03:57:23;3.70;70.72
70300;HTU21D;57704;51.112;5.878;2023-02-15T04:00:24;3.69;70.82
70300;HTU21D;57704;51.112;5.878;2023-02-15T04:05:44;3.65;70.90
70300;HTU21D;57704;51.112;5.878;2023-02-15T04:08:10;3.59;71.15
70300;HTU21D;57704;51.112;5.878;2023-02-15T04:10:36;3.57;71.29
70300;HTU21D;57704;51.112;5.878;2023-02-15T04:13:23;3.58;71.35
70300;HTU21D;57704;51.112;5.878;2023-02-15T04:15:49;3.59;71.44
70300;HTU21D;57704;51.112;5.878;2023-02-15T04:18:50;3.56;71.42
70300;HTU21D;57704;51.112;5.878;2023-02-15T04:21:35;3.49;71.61
70300;HTU21D;57704;51.112;5.878;2023-02-15T04:24:20;3.48;71.65
70300;HTU21D;57704;51.112;5.878;2023-02-15T04:27:05;3.47;71.67
70300;HTU21D;57704;51.112;5.878;2023-02-15T04:29:31;3.43;71.84
70300;HTU21D;57704;51.112;5.878;2023-02-15T04:31:59;3.46;71.86
70300;HTU21D;57704;51.112;5.878;2023-02-15T04:34:26;3.46;71.84
70300;HTU21D;57704;51.112;5.878;2023-02-15T04:36:52;3.40;71.89
70300;HTU21D;57704;51.112;5.878;2023-02-15T04:39:18;3.38;72.06
70300;HTU21D;57704;51.112;5.878;2023-02-15T04:41:45;3.38;72.00
70300;HTU21D;57704;51.112;5.878;2023-02-15T04:44:11;3.34;71.99
70300;HTU21D;57704;51.112;5.878;2023-02-15T04:46:36;3.32;72.06
70300;HTU21D;57704;51.112;5.878;2023-02-15T04:49:03;3.32;72.22
70300;HTU21D;57704;51.112;5.878;2023-02-15T04:51:29;3.35;72.20
70300;HTU21D;57704;51.112;5.878;2023-02-15T04:53:55;3.33;72.16
70300;HTU21D;57704;51.112;5.878;2023-02-15T04:56:22;3.33;72.22
70300;HTU21D;57704;51.112;5.878;2023-02-15T04:58:48;3.30;72.11
70300;HTU21D;57704;51.112;5.878;2023-02-15T05:01:15;3.23;72.28
70300;HTU21D;57704;51.112;5.878;2023-02-15T05:03:41;3.19;72.48
70300;HTU21D;57704;51.112;5.878;2023-02-15T05:06:07;3.15;72.58
70300;HTU21D;57704;51.112;5.878;2023-02-15T05:08:42;3.19;72.68
70300;HTU21D;57704;51.112;5.878;2023-02-15T05:11:08;3.23;72.59
70300;HTU21D;57704;51.112;5.878;2023-02-15T05:13:34;3.21;72.47
70300;HTU21D;57704;51.112;5.878;2023-02-15T05:16:00;3.24;72.40
70300;HTU21D;57704;51.112;5.878;2023-02-15T05:18:25;3.25;72.30
70300;HTU21D;57704;51.112;5.878;2023-02-15T05:20:51;3.21;72.29
70300;HTU21D;57704;51.112;5.878;2023-02-15T05:23:17;3.24;72.31
70300;HTU21D;57704;51.112;5.878;2023-02-15T05:25:50;3.25;72.12
70300;HTU21D;57704;51.112;5.878;2023-02-15T05:28:37;3.15;72.24
70300;HTU21D;57704;51.112;5.878;2023-02-15T05:31:17;3.12;72.49
70300;HTU21D;57704;51.112;5.878;2023-02-15T05:33:44;3.13;72.57
70300;HTU21D;57704;51.112;5.878;2023-02-15T05:36:11;3.15;72.52
70300;HTU21D;57704;51.112;5.878;2023-02-15T05:38:38;3.16;72.50
70300;HTU21D;57704;51.112;5.878;2023-02-15T05:41:08;3.18;72.50
70300;HTU21D;57704;51.112;5.878;2023-02-15T05:43:36;3.20;72.29
70300;HTU21D;57704;51.112;5.878;2023-02-15T05:46:03;3.23;72.11
70300;HTU21D;57704;51.112;5.878;2023-02-15T05:48:30;3.23;71.89
70300;HTU21D;57704;51.112;5.878;2023-02-15T05:51:10;3.23;71.64
70300;HTU21D;57704;51.112;5.878;2023-02-15T05:53:39;3.19;71.54
70300;HTU21D;57704;51.112;5.878;2023-02-15T05:56:07;3.17;71.49
70300;HTU21D;57704;51.112;5.878;2023-02-15T05:58:39;3.15;71.44
70300;HTU21D;57704;51.112;5.878;2023-02-15T06:01:14;3.15;71.36
70300;HTU21D;57704;51.112;5.878;2023-02-15T06:03:41;3.14;71.30
70300;HTU21D;57704;51.112;5.878;2023-02-15T06:06:07;3.17;71.15
70300;HTU21D;57704;51.112;5.878;2023-02-15T06:08:34;3.15;71.05
70300;HTU21D;57704;51.112;5.878;2023-02-15T06:11:01;3.09;71.10
70300;HTU21D;57704;51.112;5.878;2023-02-15T06:13:27;3.08;71.12
70300;HTU21D;57704;51.112;5.878;2023-02-15T06:15:53;3.04;71.06
70300;HTU21D;57704;51.112;5.878;2023-02-15T06:18:18;3.03;71.10
70300;HTU21D;57704;51.112;5.878;2023-02-15T06:20:48;3.02;71.09
70300;HTU21D;57704;51.112;5.878;2023-02-15T06:23:14;2.97;71.06
70300;HTU21D;57704;51.112;5.878;2023-02-15T06:25:41;2.93;71.26
70300;HTU21D;57704;51.112;5.878;2023-02-15T06:28:07;2.94;71.32
70300;HTU21D;57704;51.112;5.878;2023-02-15T06:30:33;2.87;71.36
70300;HTU21D;57704;51.112;5.878;2023-02-15T06:33:22;2.78;71.72
70300;HTU21D;57704;51.112;5.878;2023-02-15T06:37:00;2.72;72.29
70300;HTU21D;57704;51.112;5.878;2023-02-15T06:39:39;2.68;72.61
70300;HTU21D;57704;51.112;5.878;2023-02-15T06:42:23;2.64;72.88
70300;HTU21D;57704;51.112;5.878;2023-02-15T06:45:09;2.66;73.08
70300;HTU21D;57704;51.112;5.878;2023-02-15T06:47:35;2.68;73.15
70300;HTU21D;57704;51.112;5.878;2023-02-15T06:50:03;2.71;73.15
70300;HTU21D;57704;51.112;5.878;2023-02-15T06:52:29;2.74;73.05
70300;HTU21D;57704;51.112;5.878;2023-02-15T06:54:55;2.75;73.10
70300;HTU21D;57704;51.112;5.878;2023-02-15T06:57:21;2.79;73.06
70300;HTU21D;57704;51.112;5.878;2023-02-15T06:59:47;2.79;73.10
70300;HTU21D;57704;51.112;5.878;2023-02-15T07:02:13;2.81;73.19
70300;HTU21D;57704;51.112;5.878;2023-02-15T07:04:39;2.84;73.04
70300;HTU21D;57704;51.112;5.878;2023-02-15T07:07:09;2.83;73.19
70300;HTU21D;57704;51.112;5.878;2023-02-15T07:09:36;2.97;73.68
70300;HTU21D;57704;51.112;5.878;2023-02-15T07:12:02;3.25;74.09
70300;HTU21D;57704;51.112;5.878;2023-02-15T07:14:47;3.63;73.44
70300;HTU21D;57704;51.112;5.878;2023-02-15T07:17:12;3.87;72.96
70300;HTU21D;57704;51.112;5.878;2023-02-15T07:19:38;4.19;72.19
70300;HTU21D;57704;51.112;5.878;2023-02-15T07:22:04;4.45;71.42
70300;HTU21D;57704;51.112;5.878;2023-02-15T07:24:30;4.65;70.81
70300;HTU21D;57704;51.112;5.878;2023-02-15T07:26:57;4.89;70.21
70300;HTU21D;57704;51.112;5.878;2023-02-15T07:29:25;5.07;70.19
70300;HTU21D;57704;51.112;5.878;2023-02-15T07:31:51;5.37;69.87
70300;HTU21D;57704;51.112;5.878;2023-02-15T07:34:17;5.84;69.93
70300;HTU21D;57704;51.112;5.878;2023-02-15T07:36:43;6.44;69.86
70300;HTU21D;57704;51.112;5.878;2023-02-15T07:39:11;7.20;68.49
70300;HTU21D;57704;51.112;5.878;2023-02-15T07:41:37;7.86;66.78
70300;HTU21D;57704;51.112;5.878;2023-02-15T07:44:14;8.47;65.22
70300;HTU21D;57704;51.112;5.878;2023-02-15T07:46:41;9.32;64.46
70300;HTU21D;57704;51.112;5.878;2023-02-15T07:49:07;10.14;61.67
70300;HTU21D;57704;51.112;5.878;2023-02-15T07:51:33;10.78;60.04
70300;HTU21D;57704;51.112;5.878;2023-02-15T07:53:59;11.52;58.89
70300;HTU21D;57704;51.112;5.878;2023-02-15T07:56:25;12.45;56.45
70300;HTU21D;57704;51.112;5.878;2023-02-15T07:58:51;13.26;53.98
70300;HTU21D;57704;51.112;5.878;2023-02-15T08:01:19;13.93;51.35
70300;HTU21D;57704;51.112;5.878;2023-02-15T08:03:45;14.35;49.80
70300;HTU21D;57704;51.112;5.878;2023-02-15T08:06:11;14.67;48.72
70300;HTU21D;57704;51.112;5.878;2023-02-15T08:08:39;15.04;48.26
70300;HTU21D;57704;51.112;5.878;2023-02-15T08:13:56;15.66;45.94
70300;HTU21D;57704;51.112;5.878;2023-02-15T08:16:35;15.72;44.88
70300;HTU21D;57704;51.112;5.878;2023-02-15T08:21:44;15.74;44.60
70300;HTU21D;57704;51.112;5.878;2023-02-15T08:24:14;15.97;43.34
70300;HTU21D;57704;51.112;5.878;2023-02-15T08:26:41;15.93;43.55
70300;HTU21D;57704;51.112;5.878;2023-02-15T08:29:08;15.99;42.93
70300;HTU21D;57704;51.112;5.878;2023-02-15T08:31:35;15.82;42.32
70300;HTU21D;57704;51.112;5.878;2023-02-15T08:34:03;16.01;43.16
70300;HTU21D;57704;51.112;5.878;2023-02-15T08:36:31;16.65;42.36
70300;HTU21D;57704;51.112;5.878;2023-02-15T08:39:01;17.01;40.74
70300;HTU21D;57704;51.112;5.878;2023-02-15T08:41:30;17.03;40.40
70300;HTU21D;57704;51.112;5.878;2023-02-15T08:44:00;16.96;40.29
70300;HTU21D;57704;51.112;5.878;2023-02-15T08:46:28;16.78;40.12
70300;HTU21D;57704;51.112;5.878;2023-02-15T08:48:55;16.63;40.61
70300;HTU21D;57704;51.112;5.878;2023-02-15T08:51:24;16.66;40.73
70300;HTU21D;57704;51.112;5.878;2023-02-15T08:53:53;16.74;40.36
70300;HTU21D;57704;51.112;5.878;2023-02-15T08:56:25;16.52;39.91
70300;HTU21D;57704;51.112;5.878;2023-02-15T08:58:52;16.31;40.23
70300;HTU21D;57704;51.112;5.878;2023-02-15T09:01:25;16.08;41.16
70300;HTU21D;57704;51.112;5.878;2023-02-15T09:03:55;15.97;41.29
70300;HTU21D;57704;51.112;5.878;2023-02-15T09:06:22;15.98;41.53
70300;HTU21D;57704;51.112;5.878;2023-02-15T09:08:51;15.98;41.08
70300;HTU21D;57704;51.112;5.878;2023-02-15T09:11:20;15.70;41.26
70300;HTU21D;57704;51.112;5.878;2023-02-15T09:14:03;15.43;41.74
70300;HTU21D;57704;51.112;5.878;2023-02-15T09:16:32;15.22;42.87
70300;HTU21D;57704;51.112;5.878;2023-02-15T09:18:58;15.33;42.62
70300;HTU21D;57704;51.112;5.878;2023-02-15T09:21:25;15.41;42.00
70300;HTU21D;57704;51.112;5.878;2023-02-15T09:23:56;15.15;42.62
70300;HTU21D;57704;51.112;5.878;2023-02-15T09:26:23;15.12;42.59
70300;HTU21D;57704;51.112;5.878;2023-02-15T09:28:53;14.98;43.50
70300;HTU21D;57704;51.112;5.878;2023-02-15T09:31:25;15.11;43.10
70300;HTU21D;57704;51.112;5.878;2023-02-15T09:33:51;15.12;43.45
70300;HTU21D;57704;51.112;5.878;2023-02-15T09:36:23;15.37;43.18
70300;HTU21D;57704;51.112;5.878;2023-02-15T09:41:40;16.00;42.53
70300;HTU21D;57704;51.112;5.878;2023-02-15T09:44:39;16.51;41.03
70300;HTU21D;57704;51.112;5.878;2023-02-15T09:59:16;16.12;41.86
70300;HTU21D;57704;51.112;5.878;2023-02-15T10:04:42;16.74;40.48
70300;HTU21D;57704;51.112;5.878;2023-02-15T10:12:53;16.94;40.06
70300;HTU21D;57704;51.112;5.878;2023-02-15T10:15:30;17.01;39.49
70300;HTU21D;57704;51.112;5.878;2023-02-15T10:18:09;16.99;39.97
70300;HTU21D;57704;51.112;5.878;2023-02-15T10:23:35;17.16;39.17
70300;HTU21D;57704;51.112;5.878;2023-02-15T10:28:53;17.14;39.83
70300;HTU21D;57704;51.112;5.878;2023-02-15T10:31:47;17.14;40.04
70300;HTU21D;57704;51.112;5.878;2023-02-15T10:34:31;17.16;39.64
70300;HTU21D;57704;51.112;5.878;2023-02-15T10:50:50;17.26;40.23
70300;HTU21D;57704;51.112;5.878;2023-02-15T10:53:36;17.28;40.63
70300;HTU21D;57704;51.112;5.878;2023-02-15T10:56:26;17.37;40.23
70300;HTU21D;57704;51.112;5.878;2023-02-15T10:59:33;17.23;40.50
70300;HTU21D;57704;51.112;5.878;2023-02-15T11:07:36;16.88;41.57
70300;HTU21D;57704;51.112;5.878;2023-02-15T11:12:54;16.76;41.89
70300;HTU21D;57704;51.112;5.878;2023-02-15T11:15:46;16.81;42.15
70300;HTU21D;57704;51.112;5.878;2023-02-15T11:18:36;16.89;42.27
70300;HTU21D;57704;51.112;5.878;2023-02-15T11:21:17;16.92;42.16
70300;HTU21D;57704;51.112;5.878;2023-02-15T11:23:47;17.07;42.26
70300;HTU21D;57704;51.112;5.878;2023-02-15T11:26:19;17.37;42.22
70300;HTU21D;57704;51.112;5.878;2023-02-15T11:28:56;17.65;41.31
70300;HTU21D;57704;51.112;5.878;2023-02-15T11:31:26;17.90;41.49
70300;HTU21D;57704;51.112;5.878;2023-02-15T11:34:04;18.10;40.11
70300;HTU21D;57704;51.112;5.878;2023-02-15T11:36:40;17.90;40.42
70300;HTU21D;57704;51.112;5.878;2023-02-15T11:39:14;17.98;40.76
70300;HTU21D;57704;51.112;5.878;2023-02-15T11:41:52;18.17;40.53
70300;HTU21D;57704;51.112;5.878;2023-02-15T11:45:04;18.28;40.58
70300;HTU21D;57704;51.112;5.878;2023-02-15T11:47:32;18.61;40.12
70300;HTU21D;57704;51.112;5.878;2023-02-15T11:50:02;18.84;39.75
70300;HTU21D;57704;51.112;5.878;2023-02-15T11:52:32;19.13;39.48
70300;HTU21D;57704;51.112;5.878;2023-02-15T11:54:58;19.38;38.94
70300;HTU21D;57704;51.112;5.878;2023-02-15T11:57:33;19.85;37.55
70300;HTU21D;57704;51.112;5.878;2023-02-15T12:02:38;20.42;36.47
70300;HTU21D;57704;51.112;5.878;2023-02-15T12:05:18;20.75;34.53
70300;HTU21D;57704;51.112;5.878;2023-02-15T12:07:52;20.83;34.20
70300;HTU21D;57704;51.112;5.878;2023-02-15T12:10:32;20.99;33.67
70300;HTU21D;57704;51.112;5.878;2023-02-15T12:13:18;21.38;34.08
70300;HTU21D;57704;51.112;5.878;2023-02-15T12:15:47;21.80;33.48
70300;HTU21D;57704;51.112;5.878;2023-02-15T12:18:41;22.21;31.80
70300;HTU21D;57704;51.112;5.878;2023-02-15T12:23:52;22.31;31.89
70300;HTU21D;57704;51.112;5.878;2023-02-15T12:26:29;22.66;31.28
70300;HTU21D;57704;51.112;5.878;2023-02-15T12:29:00;22.99;30.88
70300;HTU21D;57704;51.112;5.878;2023-02-15T12:31:41;23.13;29.54
70300;HTU21D;57704;51.112;5.878;2023-02-15T12:34:16;23.02;26.55
70300;HTU21D;57704;51.112;5.878;2023-02-15T12:36:47;22.83;26.67
70300;HTU21D;57704;51.112;5.878;2023-02-15T12:39:24;22.76;29.80
70300;HTU21D;57704;51.112;5.878;2023-02-15T12:44:21;22.79;30.37
70300;HTU21D;57704;51.112;5.878;2023-02-15T12:49:27;23.10;29.59
70300;HTU21D;57704;51.112;5.878;2023-02-15T12:52:00;23.15;29.58
70300;HTU21D;57704;51.112;5.878;2023-02-15T12:54:37;23.28;29.51
70300;HTU21D;57704;51.112;5.878;2023-02-15T12:57:32;23.52;28.77
70300;HTU21D;57704;51.112;5.878;2023-02-15T13:00:33;23.39;29.03
70300;HTU21D;57704;51.112;5.878;2023-02-15T13:02:55;23.68;28.90
70300;HTU21D;57704;51.112;5.878;2023-02-15T13:10:42;23.95;27.43
70300;HTU21D;57704;51.112;5.878;2023-02-15T13:13:19;24.12;27.63
70300;HTU21D;57704;51.112;5.878;2023-02-15T13:15:52;24.44;27.16
70300;HTU21D;57704;51.112;5.878;2023-02-15T13:18:48;24.71;25.01
70300;HTU21D;57704;51.112;5.878;2023-02-15T13:21:26;24.43;25.88
70300;HTU21D;57704;51.112;5.878;2023-02-15T13:23:59;23.91;26.44
70300;HTU21D;57704;51.112;5.878;2023-02-15T13:26:30;23.44;26.92
70300;HTU21D;57704;51.112;5.878;2023-02-15T13:29:05;23.07;27.31
70300;HTU21D;57704;51.112;5.878;2023-02-15T13:31:35;22.75;27.73
70300;HTU21D;57704;51.112;5.878;2023-02-15T13:34:10;22.44;27.79
70300;HTU21D;57704;51.112;5.878;2023-02-15T13:37:08;22.26;28.00
70300;HTU21D;57704;51.112;5.878;2023-02-15T13:40:00;22.11;28.32
70300;HTU21D;57704;51.112;5.878;2023-02-15T13:42:41;21.97;28.43
70300;HTU21D;57704;51.112;5.878;2023-02-15T13:48:43;21.23;29.19
70300;HTU21D;57704;51.112;5.878;2023-02-15T13:57:05;20.66;30.24
70300;HTU21D;57704;51.112;5.878;2023-02-15T14:21:59;19.26;33.40
70300;HTU21D;57704;51.112;5.878;2023-02-15T14:24:42;19.06;33.72
70300;HTU21D;57704;51.112;5.878;2023-02-15T14:32:54;18.70;34.88
70300;HTU21D;57704;51.112;5.878;2023-02-15T14:35:28;18.64;35.18
70300;HTU21D;57704;51.112;5.878;2023-02-15T14:41:02;18.37;35.63
70300;HTU21D;57704;51.112;5.878;2023-02-15T15:04:38;17.44;37.96
70300;HTU21D;57704;51.112;5.878;2023-02-15T15:09:42;17.31;38.04
70300;HTU21D;57704;51.112;5.878;2023-02-15T15:14:48;17.14;38.48
70300;HTU21D;57704;51.112;5.878;2023-02-15T15:18:03;17.05;38.78
70300;HTU21D;57704;51.112;5.878;2023-02-15T15:26:24;16.90;39.37
70300;HTU21D;57704;51.112;5.878;2023-02-15T15:31:38;16.77;39.90
70300;HTU21D;57704;51.112;5.878;2023-02-15T15:38:12;16.60;40.46
70300;HTU21D;57704;51.112;5.878;2023-02-15T15:40:58;16.54;40.78
70300;HTU21D;57704;51.112;5.878;2023-02-15T15:49:16;16.30;41.62
70300;HTU21D;57704;51.112;5.878;2023-02-15T15:51:44;16.24;41.94
70300;HTU21D;57704;51.112;5.878;2023-02-15T15:54:22;16.16;42.11
70300;HTU21D;57704;51.112;5.878;2023-02-15T15:56:57;16.07;42.39
70300;HTU21D;57704;51.112;5.878;2023-02-15T15:59:33;16.01;42.65
70300;HTU21D;57704;51.112;5.878;2023-02-15T16:02:13;15.95;42.89
70300;HTU21D;57704;51.112;5.878;2023-02-15T16:04:42;15.87;43.10
70300;HTU21D;57704;51.112;5.878;2023-02-15T16:12:48;15.59;43.71
70300;HTU21D;57704;51.112;5.878;2023-02-15T16:15:19;15.56;43.93
70300;HTU21D;57704;51.112;5.878;2023-02-15T16:17:49;15.56;44.04
70300;HTU21D;57704;51.112;5.878;2023-02-15T16:20:32;15.53;44.11
70300;HTU21D;57704;51.112;5.878;2023-02-15T16:23:33;15.51;44.22
70300;HTU21D;57704;51.112;5.878;2023-02-15T16:26:22;15.44;44.42
70300;HTU21D;57704;51.112;5.878;2023-02-15T16:28:52;15.41;44.56
70300;HTU21D;57704;51.112;5.878;2023-02-15T16:31:20;15.36;44.68
70300;HTU21D;57704;51.112;5.878;2023-02-15T16:33:48;15.30;44.90
70300;HTU21D;57704;51.112;5.878;2023-02-15T16:36:22;15.27;45.06
70300;HTU21D;57704;51.112;5.878;2023-02-15T16:41:23;15.14;45.43
70300;HTU21D;57704;51.112;5.878;2023-02-15T16:43:53;15.08;45.61
70300;HTU21D;57704;51.112;5.878;2023-02-15T16:46:32;15.01;45.83
70300;HTU21D;57704;51.112;5.878;2023-02-15T16:49:03;14.89;46.09
70300;HTU21D;57704;51.112;5.878;2023-02-15T16:51:33;14.79;46.39
70300;HTU21D;57704;51.112;5.878;2023-02-15T16:54:06;14.69;46.61
70300;HTU21D;57704;51.112;5.878;2023-02-15T16:56:34;14.59;46.80
70300;HTU21D;57704;51.112;5.878;2023-02-15T16:59:01;14.52;47.02
70300;HTU21D;57704;51.112;5.878;2023-02-15T17:01:30;14.44;47.22
70300;HTU21D;57704;51.112;5.878;2023-02-15T17:07:13;14.22;47.69
70300;HTU21D;57704;51.112;5.878;2023-02-15T17:09:54;14.15;47.86
70300;HTU21D;57704;51.112;5.878;2023-02-15T17:12:43;14.07;47.99
70300;HTU21D;57704;51.112;5.878;2023-02-15T17:15:33;13.99;48.24
70300;HTU21D;57704;51.112;5.878;2023-02-15T17:18:08;13.89;48.44
70300;HTU21D;57704;51.112;5.878;2023-02-15T17:20:39;13.83;48.53
70300;HTU21D;57704;51.112;5.878;2023-02-15T17:25:57;13.68;48.76
70300;HTU21D;57704;51.112;5.878;2023-02-15T17:28:27;13.63;48.90
70300;HTU21D;57704;51.112;5.878;2023-02-15T17:30:55;13.52;49.10
70300;HTU21D;57704;51.112;5.878;2023-02-15T17:36:19;13.38;49.45
70300;HTU21D;57704;51.112;5.878;2023-02-15T17:41:28;13.24;49.81
70300;HTU21D;57704;51.112;5.878;2023-02-15T17:43:55;13.16;50.05
70300;HTU21D;57704;51.112;5.878;2023-02-15T17:46:23;13.10;50.22
70300;HTU21D;57704;51.112;5.878;2023-02-15T17:48:51;13.04;50.30
70300;HTU21D;57704;51.112;5.878;2023-02-15T17:51:22;12.99;50.43
70300;HTU21D;57704;51.112;5.878;2023-02-15T17:53:49;12.93;50.50
70300;HTU21D;57704;51.112;5.878;2023-02-15T17:56:37;12.86;50.65
70300;HTU21D;57704;51.112;5.878;2023-02-15T17:59:04;12.76;50.92
70300;HTU21D;57704;51.112;5.878;2023-02-15T18:01:48;12.69;51.21
70300;HTU21D;57704;51.112;5.878;2023-02-15T18:04:35;12.62;51.38
70300;HTU21D;57704;51.112;5.878;2023-02-15T18:07:20;12.55;51.57
70300;HTU21D;57704;51.112;5.878;2023-02-15T18:10:17;12.45;51.89
70300;HTU21D;57704;51.112;5.878;2023-02-15T18:13:02;12.36;52.14
70300;HTU21D;57704;51.112;5.878;2023-02-15T18:15:29;12.30;52.32
70300;HTU21D;57704;51.112;5.878;2023-02-15T18:17:55;12.25;52.53
70300;HTU21D;57704;51.112;5.878;2023-02-15T18:20:24;12.16;52.72
70300;HTU21D;57704;51.112;5.878;2023-02-15T18:22:52;12.11;52.90
70300;HTU21D;57704;51.112;5.878;2023-02-15T18:25:27;12.05;53.07
70300;HTU21D;57704;51.112;5.878;2023-02-15T18:28:54;12.00;53.23
70300;HTU21D;57704;51.112;5.878;2023-02-15T18:31:30;11.96;53.38
70300;HTU21D;57704;51.112;5.878;2023-02-15T18:33:59;11.89;53.56
70300;HTU21D;57704;51.112;5.878;2023-02-15T18:36:46;11.85;53.88
70300;HTU21D;57704;51.112;5.878;2023-02-15T18:39:46;11.79;54.15
70300;HTU21D;57704;51.112;5.878;2023-02-15T18:42:25;11.71;54.29
70300;HTU21D;57704;51.112;5.878;2023-02-15T18:44:58;11.68;54.57
70300;HTU21D;57704;51.112;5.878;2023-02-15T18:47:25;11.63;54.64
70300;HTU21D;57704;51.112;5.878;2023-02-15T18:49:52;11.61;54.82
70300;HTU21D;57704;51.112;5.878;2023-02-15T18:52:25;11.56;55.00
70300;HTU21D;57704;51.112;5.878;2023-02-15T18:54:56;11.55;55.11
70300;HTU21D;57704;51.112;5.878;2023-02-15T18:57:23;11.52;55.26
70300;HTU21D;57704;51.112;5.878;2023-02-15T18:59:48;11.52;55.34
70300;HTU21D;57704;51.112;5.878;2023-02-15T19:02:16;11.53;55.44
70300;HTU21D;57704;51.112;5.878;2023-02-15T19:04:44;11.52;55.54
70300;HTU21D;57704;51.112;5.878;2023-02-15T19:07:23;11.52;55.63
70300;HTU21D;57704;51.112;5.878;2023-02-15T19:10:01;11.46;55.92
70300;HTU21D;57704;51.112;5.878;2023-02-15T19:12:29;11.43;56.00
70300;HTU21D;57704;51.112;5.878;2023-02-15T19:14:55;11.42;56.13
70300;HTU21D;57704;51.112;5.878;2023-02-15T19:17:30;11.42;56.28
70300;HTU21D;57704;51.112;5.878;2023-02-15T19:19:56;11.41;56.34
70300;HTU21D;57704;51.112;5.878;2023-02-15T19:22:28;11.40;56.39
70300;HTU21D;57704;51.112;5.878;2023-02-15T19:24:58;11.38;56.50
70300;HTU21D;57704;51.112;5.878;2023-02-15T19:27:32;11.34;56.60
70300;HTU21D;57704;51.112;5.878;2023-02-15T19:30:11;11.30;56.74
70300;HTU21D;57704;51.112;5.878;2023-02-15T19:32:38;11.26;56.92
70300;HTU21D;57704;51.112;5.878;2023-02-15T19:35:04;11.24;57.02
70300;HTU21D;57704;51.112;5.878;2023-02-15T19:37:46;11.20;57.13